Aérodrome :







RETROUVEZ-NOUS SUR...

 
LOGIN :

S'inscrire | Disclaimer

   EN    FR    IT 

 









Légende :    VFR   VFR Marginal   IFR   IFR Intensif   IFR Très Intensif
Visi : 
Plafond : 
>= 8 km
>= 3000ft
5 à 8 km
1000 à 3000 ft
1500m à 5 km
500 à 1000 ft
800 à 1500m
200 à 500 ft
< 800m
< 200 ft
Symboles :   Orages  Brouillard  Fortes neiges  Fortes précipitations  Vent > 20 kt






- Altitude de l'aérodrome : 285 ft
- Code IATA : ALB


KALB - Albany International

DERNIER METAR :
  • 031351Z 18004KT 10SM BKN031 OVC045 18/12 A2964 RMK AO2 SLP035 T01780117

METARs EXPIRÉS :
  • 031251Z 12006KT 10SM FEW027 BKN035 OVC045 18/12 A2963 RMK AO2 SLP033 T01780117
  • 031211Z 16005KT 10SM SCT027 OVC035 17/11 A2964 RMK AO2 T01670111
  • 031151Z 17006KT 10SM BKN027 OVC035 16/11 A2965 RMK AO2 SLP039 70003 T01610111 10161 20144 55002

TAF KALB
Valide du 03 à 12h jusqu'au 04 à 12h UTC


031221Z 0312/0412 18006KT P6SM SCT025 OVC035
FM031600 26009G20KT P6SM VCSH BKN050
TEMPO 0319/0323 5SM -RA OVC025
FM040300 27008KT P6SM SCT030
FIR KZBW / Amérique du Nord



MET'MAP, la Météo Aéronautique d'un coup d'oeil ! - Copyright ORBIFLY Décembre 2007 - Disclaimer

ORBIFLY MET'MAP TEAM :

Programmation & Développement : Alexandra Zaïnal
Sur une idée originale de : Baudouin d'Aumeries
Assistance à la programmation : Marc-Olivier Méhu
Soutien technique & logistique : Manuel Goepfert

Contact : metmap@orbifly.com




SOURCES & CREDITS :

   NOAA